Time;durP1;ratioP1;P1;durP2;ratioP2;P2;SDS_P1;SDS_P2;PMS_P1;PMS_P2;Temp;Humidity;BMP_temperature;BMP_pressure;BME280_temperature;BME280_humidity;BME280_pressure;Samples;Min_cycle;Max_cycle;Signal;HPM_P1;HPM_P2
2024/01/08 00:01:17;;;;;;;2.90;1.70;;;;;;;21.88;35.40;99591.58;103283;1282;61365;-76
2024/01/08 00:03:43;;;;;;;3.30;1.90;;;;;;;21.89;35.32;99595.82;103342;1282;61285;-76
2024/01/08 00:06:08;;;;;;;3.40;2.00;;;;;;;21.89;35.35;99602.80;103552;1282;62182;-77
2024/01/08 00:08:34;;;;;;;2.50;1.70;;;;;;;21.89;35.21;99602.64;103266;1283;61592;-77
2024/01/08 00:10:59;;;;;;;2.90;1.80;;;;;;;21.89;35.39;99604.08;103355;1282;61397;-76
2024/01/08 00:13:25;;;;;;;3.30;1.70;;;;;;;21.89;35.32;99611.74;103153;1282;61394;-76
2024/01/08 00:15:51;;;;;;;2.90;1.70;;;;;;;21.89;35.26;99619.07;103291;1281;61259;-76
2024/01/08 00:18:16;;;;;;;3.00;1.80;;;;;;;21.89;35.26;99626.05;103301;1284;62239;-77
2024/01/08 00:20:42;;;;;;;3.20;1.90;;;;;;;21.90;35.30;99633.18;103348;1282;61569;-77
2024/01/08 00:23:08;;;;;;;2.50;1.70;;;;;;;21.90;35.32;99635.86;103528;1282;61256;-76
2024/01/08 00:25:34;;;;;;;3.10;1.80;;;;;;;21.90;35.40;99639.98;103159;1282;61277;-77
2024/01/08 00:28:00;;;;;;;3.40;1.80;;;;;;;21.90;35.27;99646.63;103319;1282;62026;-76
2024/01/08 00:30:26;;;;;;;2.10;1.50;;;;;;;21.89;35.24;99651.47;103185;1286;61467;-77
2024/01/08 00:32:52;;;;;;;3.20;1.80;;;;;;;21.90;35.36;99651.05;103322;1282;72428;-76
2024/01/08 00:35:17;;;;;;;2.80;1.80;;;;;;;21.90;35.36;99650.15;103104;1282;61395;-76
2024/01/08 00:37:43;;;;;;;3.20;1.80;;;;;;;21.90;35.26;99648.17;103298;1282;61509;-77
2024/01/08 00:40:09;;;;;;;4.20;1.80;;;;;;;21.90;35.34;99650.29;103344;1282;61386;-76
2024/01/08 00:42:36;;;;;;;3.30;1.80;;;;;;;21.90;35.31;99651.94;103270;1282;61330;-76
2024/01/08 00:45:06;;;;;;;2.70;1.70;;;;;;;21.90;35.30;99650.51;103247;1286;61353;-77
2024/01/08 00:47:32;;;;;;;2.50;1.60;;;;;;;21.91;35.26;99654.59;103297;1282;61313;-76
2024/01/08 00:49:58;;;;;;;2.00;1.40;;;;;;;21.90;35.27;99655.89;103538;1282;61386;-76
2024/01/08 00:52:23;;;;;;;2.90;1.60;;;;;;;21.90;35.18;99657.65;103241;1282;61433;-76
2024/01/08 00:54:49;;;;;;;2.30;1.60;;;;;;;21.90;35.18;99662.84;103327;1282;61464;-77
2024/01/08 00:57:15;;;;;;;3.00;1.50;;;;;;;21.91;35.24;99669.27;103611;1282;60488;-77
2024/01/08 00:59:41;;;;;;;3.10;1.60;;;;;;;21.91;35.30;99669.95;103380;1282;61322;-76
2024/01/08 01:02:06;;;;;;;2.00;1.50;;;;;;;21.91;35.25;99666.91;103347;1282;59970;-76
2024/01/08 01:04:32;;;;;;;2.80;1.60;;;;;;;21.92;35.28;99672.95;103353;1282;61430;-76
2024/01/08 01:06:58;;;;;;;2.20;1.50;;;;;;;21.92;35.30;99671.70;103347;1282;61316;-76
2024/01/08 01:09:23;;;;;;;3.00;1.60;;;;;;;21.91;35.15;99675.66;103306;1282;61374;-77
2024/01/08 01:11:49;;;;;;;2.50;1.60;;;;;;;21.92;35.25;99678.11;103301;1285;61245;-77
2024/01/08 01:14:14;;;;;;;2.60;1.60;;;;;;;21.91;35.10;99681.73;103274;1283;61430;-76
2024/01/08 01:16:40;;;;;;;2.70;1.70;;;;;;;21.92;35.24;99687.62;103214;1282;61366;-76
2024/01/08 01:19:06;;;;;;;2.50;1.60;;;;;;;21.92;35.18;99694.98;103331;1282;61412;-76
2024/01/08 01:21:31;;;;;;;3.10;1.60;;;;;;;21.92;35.29;99696.21;103302;1282;61374;-76
2024/01/08 01:23:57;;;;;;;2.50;1.60;;;;;;;21.92;35.21;99698.01;103318;1282;61379;-77
2024/01/08 01:26:22;;;;;;;2.40;1.60;;;;;;;21.92;35.20;99697.27;103332;1281;61263;-77
2024/01/08 01:28:48;;;;;;;2.10;1.60;;;;;;;21.92;35.15;99698.16;103211;1287;73178;-76
2024/01/08 01:31:14;;;;;;;2.90;1.70;;;;;;;21.92;35.08;99699.75;103319;1282;62225;-77
2024/01/08 01:33:39;;;;;;;3.00;1.60;;;;;;;21.92;35.17;99702.45;103160;1282;61399;-77
2024/01/08 01:36:06;;;;;;;1.80;1.50;;;;;;;21.92;35.23;99708.69;103152;1287;61410;-77
2024/01/08 01:38:31;;;;;;;2.10;1.60;;;;;;;21.92;35.18;99707.61;103090;1282;61902;-76
2024/01/08 01:40:57;;;;;;;1.90;1.40;;;;;;;21.92;35.20;99711.71;103132;1282;60014;-76
2024/01/08 01:43:24;;;;;;;2.10;1.50;;;;;;;21.93;35.03;99713.33;103248;1282;61462;-77
2024/01/08 01:45:50;;;;;;;2.60;1.50;;;;;;;21.93;35.24;99714.54;103168;1282;61356;-76
2024/01/08 01:48:16;;;;;;;2.30;1.40;;;;;;;21.93;35.24;99716.72;103378;1282;60065;-76
2024/01/08 01:50:42;;;;;;;3.10;1.70;;;;;;;21.93;35.09;99716.16;103148;1282;61366;-76
2024/01/08 01:53:08;;;;;;;2.00;1.40;;;;;;;21.93;35.12;99718.85;103299;1285;59372;-76
2024/01/08 01:55:34;;;;;;;2.30;1.40;;;;;;;21.93;35.06;99717.23;103324;1282;61493;-77
2024/01/08 01:58:00;;;;;;;2.10;1.50;;;;;;;21.93;35.06;99719.73;103316;1282;61283;-76
2024/01/08 02:00:26;;;;;;;2.90;1.50;;;;;;;21.93;35.07;99722.93;103378;1287;61373;-76
2024/01/08 02:02:51;;;;;;;2.50;1.60;;;;;;;21.94;35.05;99724.89;103376;1281;61480;-76
2024/01/08 02:05:17;;;;;;;1.90;1.50;;;;;;;21.93;35.22;99724.05;103130;1282;74558;-76
2024/01/08 02:07:42;;;;;;;3.20;1.70;;;;;;;21.93;35.14;99721.73;103357;1282;61456;-76
2024/01/08 02:10:08;;;;;;;3.00;1.50;;;;;;;21.93;34.98;99725.42;103385;1282;61390;-76
2024/01/08 02:12:34;;;;;;;1.80;1.40;;;;;;;21.94;35.07;99725.23;103116;1281;61331;-77
2024/01/08 02:15:04;;;;;;;2.60;1.50;;;;;;;21.93;35.10;99722.95;103166;1282;60189;-76
2024/01/08 02:17:30;;;;;;;;;;;;;;;21.93;35.13;99723.31;103589;1282;61382;-76
2024/01/08 02:19:55;;;;;;;1.90;1.30;;;;;;;21.90;35.12;99726.08;103326;1281;60555;-76
2024/01/08 02:22:21;;;;;;;1.90;1.30;;;;;;;21.92;34.93;99723.42;103300;1282;61481;-76
2024/01/08 02:24:46;;;;;;;1.90;1.30;;;;;;;21.92;34.94;99726.15;103297;1283;61269;-76
2024/01/08 02:27:13;;;;;;;1.70;1.30;;;;;;;21.92;35.10;99727.90;103346;1282;59996;-76
2024/01/08 02:29:39;;;;;;;2.40;1.50;;;;;;;21.92;35.09;99727.87;103136;1282;61477;-76
2024/01/08 02:32:07;;;;;;;2.40;1.70;;;;;;;21.93;35.08;99736.77;103377;1282;61777;-76
2024/01/08 02:34:32;;;;;;;1.80;1.20;;;;;;;21.92;35.12;99740.41;103308;1285;72522;-76
2024/01/08 02:36:58;;;;;;;2.10;1.30;;;;;;;21.93;35.00;99739.81;103240;1282;61409;-76
2024/01/08 02:39:24;;;;;;;2.20;1.40;;;;;;;21.93;35.00;99745.73;103155;1282;61375;-76
2024/01/08 02:41:49;;;;;;;2.20;1.50;;;;;;;21.93;35.04;99742.67;103325;1282;59978;-76
2024/01/08 02:44:15;;;;;;;1.90;1.50;;;;;;;21.94;35.15;99743.17;103505;1282;61401;-76
2024/01/08 02:46:41;;;;;;;1.60;1.30;;;;;;;21.93;35.04;99742.45;103162;1287;61865;-76
2024/01/08 02:49:06;;;;;;;2.50;1.40;;;;;;;21.94;34.96;99743.52;103310;1282;61366;-76
2024/01/08 02:51:32;;;;;;;2.10;1.40;;;;;;;21.93;35.00;99736.04;103191;1286;61395;-76
2024/01/08 02:53:57;;;;;;;1.60;1.20;;;;;;;21.94;35.03;99733.61;103380;1283;61390;-76
2024/01/08 02:56:25;;;;;;;2.30;1.50;;;;;;;21.94;35.00;99736.66;103271;1282;61475;-76
2024/01/08 02:58:51;;;;;;;2.50;1.50;;;;;;;21.94;35.06;99734.85;103415;1282;59992;-76
2024/01/08 03:01:16;;;;;;;1.50;1.20;;;;;;;21.94;35.04;99736.30;103234;1283;61266;-76
2024/01/08 03:03:43;;;;;;;2.10;1.40;;;;;;;21.95;35.02;99738.79;103329;1282;61381;-76
2024/01/08 03:06:08;;;;;;;2.00;1.30;;;;;;;21.95;35.07;99736.64;103351;1282;61463;-76
2024/01/08 03:08:34;;;;;;;1.60;1.10;;;;;;;21.95;35.08;99737.30;103535;1281;61360;-76
2024/01/08 03:11:00;;;;;;;1.80;1.20;;;;;;;21.95;34.95;99742.14;103274;1282;61283;-77
2024/01/08 03:13:25;;;;;;;2.00;1.30;;;;;;;21.95;34.94;99741.79;103307;1285;61378;-76
2024/01/08 03:15:51;;;;;;;2.10;1.40;;;;;;;21.95;34.94;99752.55;103558;1282;60074;-76
2024/01/08 03:18:16;;;;;;;2.00;1.10;;;;;;;21.95;35.05;99753.43;103310;1282;62354;-76
2024/01/08 03:20:42;;;;;;;1.40;1.20;;;;;;;21.95;34.89;99756.83;103376;1285;60108;-77
2024/01/08 03:23:11;;;;;;;2.10;1.40;;;;;;;21.96;34.98;99759.84;103352;1282;75341;-76
2024/01/08 03:25:37;;;;;;;2.40;1.30;;;;;;;21.96;34.88;99768.42;103109;1289;59513;-76
2024/01/08 03:28:03;;;;;;;1.90;1.20;;;;;;;21.96;34.84;99771.48;103297;1283;62301;-76
2024/01/08 03:30:28;;;;;;;1.30;1.10;;;;;;;21.95;34.86;99771.84;103272;1282;62294;-76
2024/01/08 03:32:55;;;;;;;2.80;1.40;;;;;;;21.96;34.83;99775.07;103365;1283;62134;-76
2024/01/08 03:35:20;;;;;;;3.00;1.40;;;;;;;21.96;34.94;99775.73;103186;1283;61145;-76
2024/01/08 03:37:46;;;;;;;1.80;1.40;;;;;;;21.96;34.92;99783.09;103229;1281;61396;-76
2024/01/08 03:40:12;;;;;;;1.90;1.30;;;;;;;21.96;34.82;99785.23;103129;1283;61376;-76
2024/01/08 03:42:37;;;;;;;2.30;1.10;;;;;;;21.96;34.79;99785.59;103242;1281;73486;-76
2024/01/08 03:45:03;;;;;;;2.00;1.30;;;;;;;21.97;34.88;99791.27;103200;1283;60021;-76
2024/01/08 03:47:29;;;;;;;1.20;1.10;;;;;;;21.96;34.91;99794.54;103182;1282;61303;-76
2024/01/08 03:49:55;;;;;;;2.20;1.50;;;;;;;21.97;34.85;99801.98;103259;1282;61368;-76
2024/01/08 03:52:22;;;;;;;1.90;1.30;;;;;;;21.97;34.93;99800.79;103242;1282;60068;-76
2024/01/08 03:54:48;;;;;;;1.70;1.20;;;;;;;21.97;34.72;99800.23;103218;1287;62169;-76
2024/01/08 03:57:14;;;;;;;2.00;1.20;;;;;;;21.96;34.78;99802.60;103289;1283;61363;-76
2024/01/08 03:59:41;;;;;;;1.80;1.30;;;;;;;21.97;34.92;99804.50;103321;1281;61352;-76
2024/01/08 04:02:06;;;;;;;2.00;1.30;;;;;;;21.97;34.76;99801.49;103267;1283;61276;-76
2024/01/08 04:04:33;;;;;;;1.70;1.20;;;;;;;21.97;34.81;99802.38;103258;1285;59873;-76
2024/01/08 04:06:59;;;;;;;2.10;1.20;;;;;;;21.96;34.84;99802.40;103245;1285;60311;-76
2024/01/08 04:09:25;;;;;;;2.00;1.30;;;;;;;21.97;34.77;99804.13;103286;1286;61368;-76
2024/01/08 04:11:52;;;;;;;1.90;1.30;;;;;;;21.97;34.81;99806.12;103160;1283;61400;-76
2024/01/08 04:14:18;;;;;;;1.80;1.30;;;;;;;21.96;34.73;99808.14;103228;1283;61375;-76
2024/01/08 04:16:43;;;;;;;1.90;1.30;;;;;;;21.97;34.80;99817.22;103281;1283;61335;-76
2024/01/08 04:19:09;;;;;;;1.70;1.00;;;;;;;21.97;34.76;99821.48;103267;1282;61407;-76
2024/01/08 04:21:35;;;;;;;1.40;1.10;;;;;;;21.97;34.68;99826.16;103225;1283;61346;-76
2024/01/08 04:24:01;;;;;;;2.10;1.10;;;;;;;21.97;34.75;99830.32;103511;1283;60204;-76
2024/01/08 04:26:27;;;;;;;1.80;1.20;;;;;;;21.97;34.73;99833.52;103299;1283;61345;-76
2024/01/08 04:28:53;;;;;;;4.10;1.30;;;;;;;21.97;34.71;99838.71;103248;1286;74435;-78
2024/01/08 04:31:20;;;;;;;1.50;1.20;;;;;;;21.98;34.57;99843.10;103271;1282;61378;-76
2024/01/08 04:33:46;;;;;;;1.30;1.10;;;;;;;21.99;34.59;99850.21;103279;1283;60340;-76
2024/01/08 04:36:15;;;;;;;2.00;1.40;;;;;;;21.99;34.53;99852.52;103254;1283;61320;-76
2024/01/08 04:38:41;;;;;;;1.90;1.30;;;;;;;21.99;34.53;99860.77;103365;1282;74529;-75
2024/01/08 04:41:07;;;;;;;2.20;1.30;;;;;;;21.98;34.43;99874.25;103241;1283;61339;-75
2024/01/08 04:43:33;;;;;;;1.70;1.10;;;;;;;21.98;34.27;99872.48;103243;1285;61369;-78
2024/01/08 04:45:58;;;;;;;1.90;1.30;;;;;;;21.97;34.20;99876.85;103303;1285;61242;-76
2024/01/08 04:48:24;;;;;;;1.80;1.30;;;;;;;21.97;34.18;99874.77;103557;1282;61396;-76
2024/01/08 04:50:50;;;;;;;2.60;1.30;;;;;;;21.95;34.03;99873.09;103256;1283;61363;-76
2024/01/08 04:53:15;;;;;;;2.30;1.50;;;;;;;21.94;33.90;99875.30;103071;1283;59388;-76
2024/01/08 04:55:41;;;;;;;2.30;1.50;;;;;;;21.94;33.71;99874.23;103207;1283;61385;-76
2024/01/08 04:58:07;;;;;;;2.40;1.50;;;;;;;21.93;33.44;99872.72;103158;1282;61247;-76
2024/01/08 05:00:33;;;;;;;3.10;1.30;;;;;;;21.92;33.31;99877.80;103269;1282;61464;-76
2024/01/08 05:02:58;;;;;;;2.90;1.60;;;;;;;21.92;33.16;99881.23;103753;1284;61367;-78
2024/01/08 05:05:24;;;;;;;3.10;1.50;;;;;;;21.91;33.10;99882.35;104134;1282;61336;-78
2024/01/08 05:07:50;;;;;;;5.50;1.40;;;;;;;21.91;33.05;99886.68;104161;1282;59975;-76
2024/01/08 05:10:15;;;;;;;2.80;1.60;;;;;;;21.91;32.81;99893.84;103708;1282;73641;-78
2024/01/08 05:12:41;;;;;;;2.30;1.30;;;;;;;21.91;32.76;99898.67;104267;1282;61379;-78
2024/01/08 05:15:07;;;;;;;2.00;1.20;;;;;;;21.91;32.65;99901.88;104277;1282;59946;-78
2024/01/08 05:17:33;;;;;;;2.20;1.40;;;;;;;21.91;32.55;99906.52;103744;1282;61428;-78
2024/01/08 05:19:58;;;;;;;3.00;1.50;;;;;;;21.91;32.57;99907.47;103758;1284;61425;-78
2024/01/08 05:22:24;;;;;;;5.60;1.30;;;;;;;21.91;32.44;99912.45;103478;1283;61245;-78
2024/01/08 05:24:49;;;;;;;4.10;1.30;;;;;;;21.91;32.40;99918.56;104264;1282;74404;-76
2024/01/08 05:27:15;;;;;;;3.50;1.50;;;;;;;21.91;32.49;99920.56;104218;1281;61368;-76
2024/01/08 05:29:41;;;;;;;2.20;1.40;;;;;;;21.90;32.36;99925.30;103792;1282;61875;-76
2024/01/08 05:32:07;;;;;;;3.60;1.50;;;;;;;21.89;32.27;99925.39;103741;1282;59302;-77
2024/01/08 05:34:32;;;;;;;2.60;1.40;;;;;;;21.88;32.07;99932.83;103482;1282;61247;-77
2024/01/08 05:36:58;;;;;;;3.50;1.50;;;;;;;21.87;32.13;99939.02;104133;1284;61372;-77
2024/01/08 05:39:24;;;;;;;3.00;1.60;;;;;;;21.85;32.10;99947.10;103835;1280;62158;-79
2024/01/08 05:41:50;;;;;;;2.30;1.30;;;;;;;21.82;32.06;99947.68;104544;1282;60163;-78
2024/01/08 05:44:16;;;;;;;2.70;1.60;;;;;;;21.78;31.91;99950.68;103905;1285;59996;-78
2024/01/08 05:46:42;;;;;;;2.50;1.50;;;;;;;21.73;31.79;99958.16;103814;1282;61234;-78
2024/01/08 05:49:07;;;;;;;3.10;1.70;;;;;;;21.64;31.60;99961.28;104155;1282;62184;-78
2024/01/08 05:51:33;;;;;;;3.10;1.60;;;;;;;21.48;31.48;99962.06;103980;1282;61468;-78
2024/01/08 05:53:59;;;;;;;4.60;1.70;;;;;;;21.39;31.33;99965.64;104438;1283;62183;-79
2024/01/08 05:56:24;;;;;;;3.70;1.80;;;;;;;21.27;31.07;99965.78;104684;1284;61398;-77
2024/01/08 05:58:50;;;;;;;9.70;1.90;;;;;;;21.13;31.00;99969.45;104592;1283;61411;-78
2024/01/08 06:01:17;;;;;;;4.50;1.60;;;;;;;21.03;31.08;99970.83;104861;1282;61900;-79
2024/01/08 06:03:44;;;;;;;5.00;1.70;;;;;;;20.98;30.93;99974.50;105520;1285;60890;-78
2024/01/08 06:06:13;;;;;;;5.00;1.80;;;;;;;20.94;30.84;99973.42;105873;1282;60403;-78
2024/01/08 06:08:40;;;;;;;6.10;1.70;;;;;;;20.92;30.72;99978.60;105123;1283;73376;-78
2024/01/08 06:11:09;;;;;;;2.70;1.70;;;;;;;20.91;30.70;99979.94;105393;1283;60176;-80
2024/01/08 06:13:38;;;;;;;4.80;1.90;;;;;;;20.91;30.72;99975.21;105720;1281;61326;-79
2024/01/08 06:16:03;;;;;;;5.70;1.90;;;;;;;20.93;30.73;99982.08;105225;1281;73708;-78
2024/01/08 06:18:33;;;;;;;8.90;2.00;;;;;;;20.96;30.67;99982.89;105535;1280;61090;-77
2024/01/08 06:20:59;;;;;;;3.90;2.10;;;;;;;21.00;30.44;99986.34;106680;1281;60254;-76
2024/01/08 06:23:25;;;;;;;8.30;2.10;;;;;;;21.02;30.42;99986.71;105267;1285;61123;-76
2024/01/08 06:25:51;;;;;;;5.60;2.20;;;;;;;21.04;30.43;99993.15;105187;1282;60306;-76
2024/01/08 06:28:17;;;;;;;4.00;1.90;;;;;;;21.05;30.31;99997.04;105133;1285;61346;-76
2024/01/08 06:30:43;;;;;;;4.00;1.80;;;;;;;21.05;30.17;100003.77;105053;1282;60472;-79
2024/01/08 06:33:09;;;;;;;5.20;1.80;;;;;;;21.07;30.26;100007.95;104952;1281;61125;-79
2024/01/08 06:35:34;;;;;;;5.20;2.30;;;;;;;21.09;30.05;100008.14;104709;1282;60005;-78
2024/01/08 06:38:00;;;;;;;6.10;2.00;;;;;;;21.11;30.18;100010.98;104686;1284;72415;-79
2024/01/08 06:40:27;;;;;;;4.20;2.00;;;;;;;21.15;30.05;100016.97;105778;1282;61194;-78
2024/01/08 06:42:52;;;;;;;5.00;1.80;;;;;;;21.18;30.14;100019.23;105892;1280;61023;-78
2024/01/08 06:45:18;;;;;;;7.20;1.90;;;;;;;21.20;30.13;100030.08;105772;1282;59657;-80
2024/01/08 06:47:44;;;;;;;4.30;1.80;;;;;;;21.24;30.08;100035.63;105840;1284;60962;-79
2024/01/08 06:50:10;;;;;;;7.50;2.30;;;;;;;21.27;30.04;100037.73;105689;1283;59759;-77
2024/01/08 06:52:35;;;;;;;5.30;2.00;;;;;;;21.30;30.26;100044.29;105876;1281;59393;-79
2024/01/08 06:55:01;;;;;;;8.90;2.30;;;;;;;21.33;30.21;100054.64;106001;1283;59778;-80
2024/01/08 06:57:28;;;;;;;8.80;2.30;;;;;;;21.32;30.54;100060.27;106030;1281;60277;-81
2024/01/08 06:59:53;;;;;;;7.70;2.00;;;;;;;21.22;30.43;100062.88;105834;1282;59744;-80
2024/01/08 07:02:19;;;;;;;7.90;2.40;;;;;;;21.13;30.49;100079.56;105937;1281;59363;-80
2024/01/08 07:04:44;;;;;;;7.00;2.10;;;;;;;20.98;30.59;100081.52;105809;1282;59540;-77
2024/01/08 07:07:10;;;;;;;5.50;2.40;;;;;;;20.93;30.69;100086.33;105982;1283;59366;-77
2024/01/08 07:09:36;;;;;;;7.20;2.40;;;;;;;20.92;30.57;100089.84;105938;1282;61081;-79
2024/01/08 07:12:02;;;;;;;5.30;2.10;;;;;;;20.94;30.57;100091.64;105972;1285;72458;-78
2024/01/08 07:14:28;;;;;;;6.40;2.20;;;;;;;20.97;30.30;100093.90;106044;1281;74393;-79
2024/01/08 07:16:54;;;;;;;18.20;2.30;;;;;;;21.01;30.24;100099.31;105925;1281;61299;-79
2024/01/08 07:19:19;;;;;;;8.90;2.50;;;;;;;21.05;30.34;100100.59;105888;1282;60287;-79
2024/01/08 07:21:46;;;;;;;7.70;2.10;;;;;;;21.08;30.21;100104.08;105782;1281;61238;-80
2024/01/08 07:24:12;;;;;;;7.20;2.10;;;;;;;21.12;30.31;100104.31;105926;1281;62084;-79
2024/01/08 07:26:38;;;;;;;5.60;2.00;;;;;;;21.15;30.38;100110.83;105570;1281;61571;-80
2024/01/08 07:29:04;;;;;;;6.40;2.10;;;;;;;21.18;30.19;100115.23;105740;1281;61424;-80
2024/01/08 07:31:30;;;;;;;5.60;2.60;;;;;;;21.18;30.33;100119.42;105954;1280;58956;-80
2024/01/08 07:33:56;;;;;;;4.50;2.40;;;;;;;21.15;30.46;100121.08;105919;1282;72154;-79
2024/01/08 07:36:21;;;;;;;4.70;2.10;;;;;;;21.13;30.30;100127.67;105598;1281;60004;-78
2024/01/08 07:38:47;;;;;;;4.40;2.00;;;;;;;21.13;30.15;100130.73;105403;1280;609111;-80
2024/01/08 07:41:13;;;;;;;6.40;2.30;;;;;;;21.13;30.19;100132.82;105855;1282;61250;-81
2024/01/08 07:43:40;;;;;;;5.40;2.50;;;;;;;21.14;30.14;100136.15;105437;1282;60127;-80
2024/01/08 07:46:06;;;;;;;5.50;2.10;;;;;;;21.15;30.06;100141.45;105499;1281;59248;-79
2024/01/08 07:48:32;;;;;;;5.60;2.50;;;;;;;21.17;30.01;100148.65;105398;1282;61422;-79
2024/01/08 07:50:58;;;;;;;5.70;2.50;;;;;;;21.18;29.97;100148.73;105718;1284;59198;-80
2024/01/08 07:53:24;;;;;;;6.50;1.90;;;;;;;21.20;29.99;100159.84;106133;1282;60064;-80
2024/01/08 07:55:49;;;;;;;8.20;2.60;;;;;;;21.18;29.84;100165.21;105825;1281;72585;-81
2024/01/08 07:58:15;;;;;;;9.80;3.40;;;;;;;21.08;29.87;100164.52;105727;1284;59520;-82
2024/01/08 08:00:41;;;;;;;14.60;2.90;;;;;;;21.04;30.11;100169.02;105822;1282;60611;-80
2024/01/08 08:03:07;;;;;;;11.30;3.00;;;;;;;21.00;30.51;100171.30;105984;1281;59351;-81
2024/01/08 08:05:33;;;;;;;11.70;2.70;;;;;;;21.00;30.76;100173.78;105686;1280;61460;-79
2024/01/08 08:07:59;;;;;;;9.70;2.60;;;;;;;21.02;30.81;100177.19;105763;1284;59972;-78
2024/01/08 08:10:25;;;;;;;11.70;2.80;;;;;;;21.03;30.97;100179.80;105830;1284;60995;-78
2024/01/08 08:12:52;;;;;;;11.00;2.40;;;;;;;21.05;30.98;100179.34;105840;1280;61067;-81
2024/01/08 08:15:19;;;;;;;9.10;2.80;;;;;;;21.05;30.87;100186.27;105840;1280;60055;-79
2024/01/08 08:17:44;;;;;;;9.10;2.50;;;;;;;21.05;30.95;100193.04;105986;1280;73449;-78
2024/01/08 08:20:10;;;;;;;8.60;2.50;;;;;;;21.05;30.84;100194.30;105997;1282;61318;-80
2024/01/08 08:22:37;;;;;;;11.20;2.70;;;;;;;21.06;30.87;100199.08;105902;1280;61900;-78
2024/01/08 08:25:03;;;;;;;7.60;3.00;;;;;;;21.06;30.78;100208.01;105965;1282;61257;-79
2024/01/08 08:27:29;;;;;;;6.90;2.30;;;;;;;21.06;30.70;100211.20;105611;1280;59469;-79
2024/01/08 08:29:55;;;;;;;10.80;2.40;;;;;;;21.07;30.60;100220.84;105678;1281;61392;-79
2024/01/08 08:32:21;;;;;;;6.40;2.40;;;;;;;21.07;30.62;100226.00;105310;1283;61120;-78
2024/01/08 08:34:47;;;;;;;7.60;2.50;;;;;;;21.07;30.67;100228.71;105495;1282;61360;-79
2024/01/08 08:37:14;;;;;;;6.00;2.30;;;;;;;21.08;30.46;100233.45;105619;1282;61314;-78
2024/01/08 08:39:40;;;;;;;10.50;2.50;;;;;;;21.08;30.49;100240.58;105385;1281;73556;-80
2024/01/08 08:42:06;;;;;;;6.70;2.40;;;;;;;21.09;30.56;100242.16;105349;1282;75296;-79
2024/01/08 08:44:32;;;;;;;7.90;2.60;;;;;;;21.09;30.38;100249.98;105184;1280;59346;-78
2024/01/08 08:46:58;;;;;;;10.10;2.80;;;;;;;21.09;30.38;100254.84;105796;1280;61325;-81
2024/01/08 08:49:24;;;;;;;7.10;2.80;;;;;;;21.09;30.34;100253.19;105499;1280;59422;-79
2024/01/08 08:51:50;;;;;;;7.10;2.70;;;;;;;21.08;30.36;100257.36;105559;1283;59694;-79
2024/01/08 08:54:15;;;;;;;6.90;2.70;;;;;;;21.09;30.22;100263.23;105866;1280;59722;-81
2024/01/08 08:56:42;;;;;;;7.40;2.60;;;;;;;21.09;30.17;100265.79;105813;1281;59925;-80
2024/01/08 08:59:07;;;;;;;15.30;2.80;;;;;;;21.05;29.98;100269.45;105652;1280;60267;-81
2024/01/08 09:01:33;;;;;;;18.10;3.70;;;;;;;21.03;30.23;100265.14;105753;1282;60071;-79
2024/01/08 09:03:59;;;;;;;8.60;3.00;;;;;;;21.02;30.62;100271.48;105866;1282;60020;-80
2024/01/08 09:06:26;;;;;;;11.00;3.00;;;;;;;21.01;30.57;100267.83;105781;1281;60533;-80
2024/01/08 09:08:55;;;;;;;9.10;3.30;;;;;;;21.01;30.61;100269.05;106759;1280;59129;-80
2024/01/08 09:11:21;;;;;;;10.90;2.60;;;;;;;21.03;30.65;100273.18;106614;1282;72539;-79
2024/01/08 09:13:47;;;;;;;11.30;3.10;;;;;;;21.04;30.73;100274.71;106719;1281;59318;-78
2024/01/08 09:16:14;;;;;;;10.60;3.10;;;;;;;21.07;30.83;100277.73;106663;1281;59556;-78
2024/01/08 09:18:42;;;;;;;9.70;2.80;;;;;;;21.10;30.90;100278.75;106486;1283;59094;-81
2024/01/08 09:21:09;;;;;;;9.00;2.70;;;;;;;21.13;31.02;100277.09;106618;1281;72445;-81
2024/01/08 09:23:34;;;;;;;9.40;2.80;;;;;;;21.14;31.04;100280.90;106664;1281;59445;-79
2024/01/08 09:26:00;;;;;;;9.20;3.50;;;;;;;21.17;31.12;100286.23;106669;1282;60049;-79
2024/01/08 09:28:25;;;;;;;12.20;2.80;;;;;;;21.20;31.33;100285.83;106631;1282;59325;-81
2024/01/08 09:30:54;;;;;;;12.30;3.40;;;;;;;21.23;31.29;100294.73;106851;1280;58637;-80
2024/01/08 09:33:19;;;;;;;12.60;2.90;;;;;;;21.24;31.41;100294.60;106667;1282;58971;-79
2024/01/08 09:35:45;;;;;;;9.50;2.90;;;;;;;21.26;31.62;100298.76;106834;1280;59183;-80
2024/01/08 09:38:11;;;;;;;11.20;3.00;;;;;;;21.28;31.58;100302.90;106630;1280;59631;-81
2024/01/08 09:40:36;;;;;;;13.30;3.50;;;;;;;21.29;31.77;100307.33;106757;1282;59064;-80
2024/01/08 09:43:06;;;;;;;11.60;2.70;;;;;;;21.28;31.76;100311.14;106651;1280;60063;-80
2024/01/08 09:45:32;;;;;;;9.90;3.10;;;;;;;21.27;31.76;100314.97;106521;1281;75180;-79
2024/01/08 09:47:58;;;;;;;6.70;2.60;;;;;;;21.27;31.51;100323.60;106497;1280;59226;-78
2024/01/08 09:50:24;;;;;;;8.30;2.80;;;;;;;21.26;31.39;100322.23;106603;1280;59597;-77
2024/01/08 09:52:50;;;;;;;8.90;3.20;;;;;;;21.23;31.35;100326.21;106563;1281;59205;-80
2024/01/08 09:55:16;;;;;;;11.90;3.20;;;;;;;20.98;30.61;100334.08;106542;1281;59692;-81
2024/01/08 09:57:41;;;;;;;15.40;3.50;;;;;;;20.45;30.56;100338.13;106726;1281;59674;-81
2024/01/08 10:00:07;;;;;;;13.10;3.20;;;;;;;20.33;30.94;100344.88;106615;1282;59371;-79
2024/01/08 10:02:34;;;;;;;19.70;4.00;;;;;;;20.17;30.65;100350.34;106200;1280;59252;-80
2024/01/08 10:05:00;;;;;;;14.60;3.70;;;;;;;19.94;30.49;100352.21;106262;1280;72451;-80
2024/01/08 10:07:26;;;;;;;7.00;3.20;;;;;;;19.70;30.50;100348.23;106185;1282;59463;-78
2024/01/08 10:09:52;;;;;;;10.10;3.90;;;;;;;19.54;30.19;100353.66;105888;1281;60419;-80
2024/01/08 10:12:17;;;;;;;9.80;4.00;;;;;;;18.91;29.53;100350.36;105967;1279;59629;-81
2024/01/08 10:14:43;;;;;;;18.50;4.00;;;;;;;18.75;29.95;100353.95;105888;1280;60108;-78
2024/01/08 10:17:09;;;;;;;14.80;3.50;;;;;;;18.85;30.18;100355.08;105848;1280;60694;-80
2024/01/08 10:19:34;;;;;;;12.70;3.80;;;;;;;19.00;30.63;100356.20;105873;1281;74770;-79
2024/01/08 10:22:11;;;;;;;17.70;3.30;;;;;;;19.16;30.76;100353.48;105663;1281;59891;-79
2024/01/08 10:24:38;;;;;;;8.70;3.60;;;;;;;19.32;30.75;100358.29;105607;1281;60986;-81
2024/01/08 10:27:04;;;;;;;12.50;3.60;;;;;;;19.46;30.66;100352.46;105708;1282;73771;-80
2024/01/08 10:29:30;;;;;;;11.80;3.30;;;;;;;19.58;30.84;100356.95;105677;1282;62116;-80
2024/01/08 10:31:56;;;;;;;14.10;3.40;;;;;;;19.69;30.85;100359.20;105566;1282;61247;-79
2024/01/08 10:34:21;;;;;;;12.30;2.90;;;;;;;19.77;31.07;100361.47;105567;1281;59339;-78
2024/01/08 10:36:47;;;;;;;9.40;3.20;;;;;;;19.82;31.17;100365.95;105202;1282;61412;-80
2024/01/08 10:39:13;;;;;;;8.10;3.60;;;;;;;19.87;31.34;100365.41;105428;1281;61415;-79
2024/01/08 10:41:39;;;;;;;18.30;3.40;;;;;;;19.92;31.39;100373.95;105702;1281;60768;-79
2024/01/08 10:44:04;;;;;;;13.40;3.50;;;;;;;19.95;31.36;100376.27;105591;1281;60245;-80
2024/01/08 10:46:34;;;;;;;8.20;3.10;;;;;;;19.98;31.50;100388.19;105563;1282;60040;-78
2024/01/08 10:49:01;;;;;;;8.40;3.50;;;;;;;19.98;31.62;100388.40;105826;1282;73463;-81
2024/01/08 10:51:26;;;;;;;15.60;4.10;;;;;;;19.97;31.73;100394.16;106805;1281;76039;-80
2024/01/08 10:53:53;;;;;;;10.70;3.60;;;;;;;19.97;31.58;100395.76;106668;1280;59829;-81
2024/01/08 10:56:22;;;;;;;18.50;4.00;;;;;;;19.95;31.62;100400.00;106902;1281;59561;-79
2024/01/08 10:59:11;;;;;;;15.40;4.40;;;;;;;19.83;31.18;100397.49;106009;1281;72449;-80
2024/01/08 11:01:37;;;;;;;7.90;3.50;;;;;;;19.78;31.22;100396.93;104799;1288;73973;-78
2024/01/08 11:04:03;;;;;;;9.80;3.40;;;;;;;19.78;31.01;100395.00;105144;1288;59826;-80
2024/01/08 11:06:29;;;;;;;10.30;3.70;;;;;;;19.68;30.89;100397.80;105109;1288;59844;-79
2024/01/08 11:08:58;;;;;;;13.80;3.90;;;;;;;19.32;30.44;100402.27;104916;1288;60172;-81
2024/01/08 11:11:25;;;;;;;9.10;4.30;;;;;;;19.13;30.43;100409.01;104925;1288;73270;-79
2024/01/08 11:13:51;;;;;;;8.80;3.60;;;;;;;18.85;30.44;100415.50;105270;1288;61097;-79
2024/01/08 11:16:29;;;;;;;9.80;3.60;;;;;;;18.86;30.65;100420.44;105177;1290;60097;-78